Noble, Ohio
Current Conditions -  °F | °C
As of 7:45 PM on Tuesday 27 Jan 2015 (Local Time) from KCGF Reporting Station
Broken Clouds Broken Clouds  
Wind Chill: -13°   Ceiling: 12000
Heat Index: -7°   Visibility: 10mi
Dew Point: -10°   Wind: 8mph
Humidity: 80%   Direction: 340°NNW
Pressure: 30.15"   Gusts: NA
Location:  41.6046°N, 81.5°W
Report Text: KCGF 280045Z 34007KT 10SM FEW017 BKN120 M07/M10 A3015
Loading
Personal Weather Stations






























Interactive Weather Map New forecast layout! Learn more

10-Day Weather Forecast

Advertisements
Track Severe Weather on mobile